This is the latest recevied weather packets stored in our database for station/object WZ9ZZZ-1. If no packets are shown the sender has not sent any weather packets the latest 10 day(s).
| Time | Temp. | Humidity | Pressure | Rain* | Wind** | Luminosity | Snow |
|---|---|---|---|---|---|---|---|
| 1777844296 | 27.22° C | 42% | 1022.9 hPa | 0 mm | - | 506 W/m² | - |
| 1777843993 | 26.67° C | 43% | 1023.4 hPa | 0 mm | - | 521 W/m² | - |
| 1777843690 | 26.67° C | 42% | 1023.4 hPa | 0 mm | - | 533 W/m² | - |
| 1777843388 | 27.22° C | 43% | 1023.4 hPa | 0 mm | - | 540 W/m² | - |
| 1777843085 | 27.78° C | 41% | 1023.5 hPa | 0 mm | - | 559 W/m² | - |
| 1777842782 | 27.22° C | 43% | 1023.2 hPa | 0 mm | - | 570 W/m² | - |
| 1777842481 | 27.22° C | 42% | 1023.5 hPa | 0 mm | - | 580 W/m² | - |
| 1777842180 | 26.67° C | 43% | 1023.5 hPa | 0 mm | - | 599 W/m² | - |
| 1777841874 | 27.78° C | 42% | 1023.6 hPa | 0 mm | - | 620 W/m² | - |
| 1777841571 | 27.22° C | 41% | 1023.5 hPa | 0 mm | - | 646 W/m² | - |
| 1777841268 | 27.78° C | 41% | 1023.5 hPa | 0 mm | - | 662 W/m² | - |
| 1777840965 | 27.22° C | 44% | 1023.7 hPa | 0 mm | - | 660 W/m² | - |
| 1777840663 | 27.22° C | 42% | 1023.8 hPa | 0 mm | - | 678 W/m² | - |
| 1777840360 | 27.78° C | 42% | 1023.9 hPa | 0 mm | - | 684 W/m² | - |
| 1777840057 | 27.22° C | 41% | 1024 hPa | 0 mm | - | 689 W/m² | - |
| 1777839755 | 26.11° C | 42% | 1024.2 hPa | 0 mm | - | 667 W/m² | - |
| 1777839452 | 27.22° C | 42% | 1024.1 hPa | 0 mm | - | 700 W/m² | - |
| 1777839150 | 27.22° C | 42% | 1024.2 hPa | 0 mm | - | 707 W/m² | - |
| 1777838846 | 27.22° C | 40% | 1024.7 hPa | 0 mm | - | 701 W/m² | - |
| 1777838542 | 26.67° C | 43% | 1024.4 hPa | 0 mm | - | 696 W/m² | - |
| 1777838239 | 26.67° C | 43% | 1024.5 hPa | 0 mm | - | 703 W/m² | - |
| 1777837936 | 27.78° C | 40% | 1024.7 hPa | 0 mm | - | 710 W/m² | - |
| 1777837634 | 26.67° C | 42% | 1024.5 hPa | 0 mm | - | 707 W/m² | - |
| 1777837329 | 26.67° C | 43% | 1024.6 hPa | 0 mm | - | 701 W/m² | - |
| 1777837026 | 26.67° C | 42% | 1024.8 hPa | 0 mm | - | 704 W/m² | - |
* Rain latest hour (hover to see other rain measurements)
** Current wind speed in m/s (hover to see current wind gust speed)